sensor_id;sensor_type;location;lat;lon;timestamp;pressure;altitude;pressure_sealevel;temperature;humidity
24031;BME280;12240;51.142;22.486;2023-04-28T00:00:54;99876.88;;;3.07;100.00
24031;BME280;12240;51.142;22.486;2023-04-28T00:03:22;99870.03;;;3.04;100.00
24031;BME280;12240;51.142;22.486;2023-04-28T00:05:52;99866.81;;;2.99;100.00
24031;BME280;12240;51.142;22.486;2023-04-28T00:08:20;99866.91;;;2.98;100.00
24031;BME280;12240;51.142;22.486;2023-04-28T00:10:50;99864.28;;;2.98;100.00
24031;BME280;12240;51.142;22.486;2023-04-28T00:13:18;99868.81;;;2.96;100.00
24031;BME280;12240;51.142;22.486;2023-04-28T00:15:46;99868.63;;;2.99;100.00
24031;BME280;12240;51.142;22.486;2023-04-28T00:18:14;99866.66;;;3.02;100.00
24031;BME280;12240;51.142;22.486;2023-04-28T00:20:42;99868.72;;;2.97;100.00
24031;BME280;12240;51.142;22.486;2023-04-28T00:23:10;99871.25;;;2.99;100.00
24031;BME280;12240;51.142;22.486;2023-04-28T00:25:38;99864.19;;;2.99;100.00
24031;BME280;12240;51.142;22.486;2023-04-28T00:28:07;99863.56;;;2.96;100.00
24031;BME280;12240;51.142;22.486;2023-04-28T00:30:36;99866.19;;;2.96;100.00
24031;BME280;12240;51.142;22.486;2023-04-28T00:33:04;99866.81;;;2.99;100.00
24031;BME280;12240;51.142;22.486;2023-04-28T00:35:32;99866.00;;;2.99;100.00
24031;BME280;12240;51.142;22.486;2023-04-28T00:38:01;99869.38;;;3.01;100.00
24031;BME280;12240;51.142;22.486;2023-04-28T00:40:37;99864.94;;;3.01;100.00
24031;BME280;12240;51.142;22.486;2023-04-28T00:43:06;99861.47;;;3.01;100.00
24031;BME280;12240;51.142;22.486;2023-04-28T00:45:34;99858.19;;;2.97;100.00
24031;BME280;12240;51.142;22.486;2023-04-28T00:48:03;99866.53;;;2.90;100.00
24031;BME280;12240;51.142;22.486;2023-04-28T00:50:31;99868.03;;;2.80;100.00
24031;BME280;12240;51.142;22.486;2023-04-28T00:53:00;99868.66;;;2.69;100.00
24031;BME280;12240;51.142;22.486;2023-04-28T00:55:31;99869.88;;;2.64;100.00
24031;BME280;12240;51.142;22.486;2023-04-28T00:58:01;99867.53;;;2.59;100.00
24031;BME280;12240;51.142;22.486;2023-04-28T01:00:29;99867.88;;;2.53;100.00
24031;BME280;12240;51.142;22.486;2023-04-28T01:02:58;99869.78;;;2.51;100.00
24031;BME280;12240;51.142;22.486;2023-04-28T01:05:28;99875.94;;;2.50;100.00
24031;BME280;12240;51.142;22.486;2023-04-28T01:07:57;99869.16;;;2.46;100.00
24031;BME280;12240;51.142;22.486;2023-04-28T01:10:25;99874.72;;;2.42;100.00
24031;BME280;12240;51.142;22.486;2023-04-28T01:12:53;99871.59;;;2.35;100.00
24031;BME280;12240;51.142;22.486;2023-04-28T01:15:21;99879.09;;;2.27;100.00
24031;BME280;12240;51.142;22.486;2023-04-28T01:17:54;99870.00;;;2.17;100.00
24031;BME280;12240;51.142;22.486;2023-04-28T01:20:23;99874.00;;;2.08;100.00
24031;BME280;12240;51.142;22.486;2023-04-28T01:22:52;99870.72;;;2.05;100.00
24031;BME280;12240;51.142;22.486;2023-04-28T01:25:20;99873.72;;;1.99;100.00
24031;BME280;12240;51.142;22.486;2023-04-28T01:27:48;99875.66;;;1.95;100.00
24031;BME280;12240;51.142;22.486;2023-04-28T01:30:17;99879.03;;;1.97;100.00
24031;BME280;12240;51.142;22.486;2023-04-28T01:32:45;99872.84;;;1.98;100.00
24031;BME280;12240;51.142;22.486;2023-04-28T01:35:13;99872.94;;;1.97;100.00
24031;BME280;12240;51.142;22.486;2023-04-28T01:37:41;99869.91;;;2.04;100.00
24031;BME280;12240;51.142;22.486;2023-04-28T01:40:10;99874.69;;;2.12;100.00
24031;BME280;12240;51.142;22.486;2023-04-28T01:42:38;99873.00;;;2.11;100.00
24031;BME280;12240;51.142;22.486;2023-04-28T01:45:07;99876.22;;;2.16;100.00
24031;BME280;12240;51.142;22.486;2023-04-28T01:47:36;99882.13;;;2.19;100.00
24031;BME280;12240;51.142;22.486;2023-04-28T01:50:05;99877.38;;;2.26;100.00
24031;BME280;12240;51.142;22.486;2023-04-28T01:52:35;99877.94;;;2.31;100.00
24031;BME280;12240;51.142;22.486;2023-04-28T01:55:04;99875.75;;;2.39;100.00
24031;BME280;12240;51.142;22.486;2023-04-28T01:57:32;99874.44;;;2.46;100.00
24031;BME280;12240;51.142;22.486;2023-04-28T02:00:03;99876.81;;;2.51;100.00
24031;BME280;12240;51.142;22.486;2023-04-28T02:02:35;99873.03;;;2.55;100.00
24031;BME280;12240;51.142;22.486;2023-04-28T02:05:04;99873.81;;;2.57;100.00
24031;BME280;12240;51.142;22.486;2023-04-28T02:07:32;99870.91;;;2.61;100.00
24031;BME280;12240;51.142;22.486;2023-04-28T02:10:00;99874.47;;;2.60;100.00
24031;BME280;12240;51.142;22.486;2023-04-28T02:12:28;99877.84;;;2.62;100.00
24031;BME280;12240;51.142;22.486;2023-04-28T02:14:56;99878.63;;;2.64;100.00
24031;BME280;12240;51.142;22.486;2023-04-28T02:17:29;99878.81;;;2.61;100.00
24031;BME280;12240;51.142;22.486;2023-04-28T02:19:57;99887.78;;;2.57;100.00
24031;BME280;12240;51.142;22.486;2023-04-28T02:22:26;99883.84;;;2.50;100.00
24031;BME280;12240;51.142;22.486;2023-04-28T02:24:54;99885.03;;;2.45;100.00
24031;BME280;12240;51.142;22.486;2023-04-28T02:27:23;99888.59;;;2.44;100.00
24031;BME280;12240;51.142;22.486;2023-04-28T02:29:50;99886.75;;;2.46;100.00
24031;BME280;12240;51.142;22.486;2023-04-28T02:32:19;99890.97;;;2.48;100.00
24031;BME280;12240;51.142;22.486;2023-04-28T02:34:54;99888.50;;;2.45;100.00
24031;BME280;12240;51.142;22.486;2023-04-28T02:37:23;99892.09;;;2.44;100.00
24031;BME280;12240;51.142;22.486;2023-04-28T02:39:52;99893.19;;;2.40;100.00
24031;BME280;12240;51.142;22.486;2023-04-28T02:42:22;99892.63;;;2.35;100.00
24031;BME280;12240;51.142;22.486;2023-04-28T02:44:50;99899.75;;;2.33;100.00
24031;BME280;12240;51.142;22.486;2023-04-28T02:47:18;99897.19;;;2.31;100.00
24031;BME280;12240;51.142;22.486;2023-04-28T02:49:46;99902.88;;;2.24;100.00
24031;BME280;12240;51.142;22.486;2023-04-28T02:52:15;99906.88;;;2.15;100.00
24031;BME280;12240;51.142;22.486;2023-04-28T02:54:44;99913.84;;;2.16;100.00
24031;BME280;12240;51.142;22.486;2023-04-28T02:57:17;99909.41;;;2.17;100.00
24031;BME280;12240;51.142;22.486;2023-04-28T02:59:45;99907.56;;;2.19;100.00
24031;BME280;12240;51.142;22.486;2023-04-28T03:02:14;99912.72;;;2.20;100.00
24031;BME280;12240;51.142;22.486;2023-04-28T03:04:43;99902.13;;;2.22;100.00
24031;BME280;12240;51.142;22.486;2023-04-28T03:07:11;99910.19;;;2.19;100.00
24031;BME280;12240;51.142;22.486;2023-04-28T03:09:39;99915.53;;;2.17;100.00
24031;BME280;12240;51.142;22.486;2023-04-28T03:12:09;99916.72;;;2.12;100.00
24031;BME280;12240;51.142;22.486;2023-04-28T03:14:37;99916.81;;;2.10;100.00
24031;BME280;12240;51.142;22.486;2023-04-28T03:17:05;99909.88;;;2.09;100.00
24031;BME280;12240;51.142;22.486;2023-04-28T03:19:34;99922.06;;;2.10;100.00
24031;BME280;12240;51.142;22.486;2023-04-28T03:22:02;99913.31;;;2.10;100.00
24031;BME280;12240;51.142;22.486;2023-04-28T03:24:31;99919.72;;;2.06;100.00
24031;BME280;12240;51.142;22.486;2023-04-28T03:26:59;99926.63;;;2.07;100.00
24031;BME280;12240;51.142;22.486;2023-04-28T03:29:29;99926.47;;;2.10;100.00
24031;BME280;12240;51.142;22.486;2023-04-28T03:31:59;99919.84;;;2.18;100.00
24031;BME280;12240;51.142;22.486;2023-04-28T03:34:27;99928.41;;;2.22;100.00
24031;BME280;12240;51.142;22.486;2023-04-28T03:36:55;99928.66;;;2.17;100.00
24031;BME280;12240;51.142;22.486;2023-04-28T03:39:29;99921.72;;;2.16;100.00
24031;BME280;12240;51.142;22.486;2023-04-28T03:41:58;99926.91;;;2.18;100.00
24031;BME280;12240;51.142;22.486;2023-04-28T03:44:44;99925.72;;;2.23;100.00
24031;BME280;12240;51.142;22.486;2023-04-28T03:47:13;99923.75;;;2.27;100.00
24031;BME280;12240;51.142;22.486;2023-04-28T03:49:41;99929.41;;;2.35;100.00
24031;BME280;12240;51.142;22.486;2023-04-28T03:52:09;99930.94;;;2.39;100.00
24031;BME280;12240;51.142;22.486;2023-04-28T03:54:37;99929.91;;;2.42;100.00
24031;BME280;12240;51.142;22.486;2023-04-28T03:57:05;99937.97;;;2.38;100.00
24031;BME280;12240;51.142;22.486;2023-04-28T03:59:34;99942.38;;;2.38;100.00
24031;BME280;12240;51.142;22.486;2023-04-28T04:02:02;99943.72;;;2.45;100.00
24031;BME280;12240;51.142;22.486;2023-04-28T04:04:30;99943.53;;;2.48;100.00
24031;BME280;12240;51.142;22.486;2023-04-28T04:07:00;99936.22;;;2.53;100.00
24031;BME280;12240;51.142;22.486;2023-04-28T04:09:29;99939.78;;;2.52;100.00
24031;BME280;12240;51.142;22.486;2023-04-28T04:11:57;99945.44;;;2.60;100.00
24031;BME280;12240;51.142;22.486;2023-04-28T04:14:25;99940.59;;;2.68;100.00
24031;BME280;12240;51.142;22.486;2023-04-28T04:16:54;99945.88;;;2.82;100.00
24031;BME280;12240;51.142;22.486;2023-04-28T04:19:23;99938.19;;;2.79;100.00
24031;BME280;12240;51.142;22.486;2023-04-28T04:21:54;99944.38;;;2.78;100.00
24031;BME280;12240;51.142;22.486;2023-04-28T04:24:22;99942.69;;;2.77;100.00
24031;BME280;12240;51.142;22.486;2023-04-28T04:26:50;99948.31;;;2.71;100.00
24031;BME280;12240;51.142;22.486;2023-04-28T04:29:27;99948.75;;;2.64;100.00
24031;BME280;12240;51.142;22.486;2023-04-28T04:31:56;99941.63;;;2.66;100.00
24031;BME280;12240;51.142;22.486;2023-04-28T04:34:24;99944.25;;;2.66;100.00
24031;BME280;12240;51.142;22.486;2023-04-28T04:36:53;99950.63;;;2.62;100.00
24031;BME280;12240;51.142;22.486;2023-04-28T04:39:22;99946.13;;;2.64;100.00
24031;BME280;12240;51.142;22.486;2023-04-28T04:41:50;99949.94;;;2.58;100.00
24031;BME280;12240;51.142;22.486;2023-04-28T04:44:44;99950.53;;;2.63;100.00
24031;BME280;12240;51.142;22.486;2023-04-28T04:47:26;99957.59;;;2.63;100.00
24031;BME280;12240;51.142;22.486;2023-04-28T04:49:56;99952.63;;;2.72;100.00
24031;BME280;12240;51.142;22.486;2023-04-28T04:52:24;99950.50;;;2.93;100.00
24031;BME280;12240;51.142;22.486;2023-04-28T04:54:54;99960.06;;;3.51;100.00
24031;BME280;12240;51.142;22.486;2023-04-28T04:57:24;99956.19;;;4.52;100.00
24031;BME280;12240;51.142;22.486;2023-04-28T05:00:05;99939.81;;;4.99;100.00
24031;BME280;12240;51.142;22.486;2023-04-28T05:02:34;99952.50;;;5.69;100.00
24031;BME280;12240;51.142;22.486;2023-04-28T05:05:05;99949.88;;;5.57;100.00
24031;BME280;12240;51.142;22.486;2023-04-28T05:08:08;99948.28;;;5.79;100.00
24031;BME280;12240;51.142;22.486;2023-04-28T05:10:37;99942.66;;;5.97;100.00
24031;BME280;12240;51.142;22.486;2023-04-28T05:13:05;99945.25;;;6.80;100.00
24031;BME280;12240;51.142;22.486;2023-04-28T05:15:33;99943.72;;;6.88;100.00
24031;BME280;12240;51.142;22.486;2023-04-28T05:18:20;99939.38;;;7.55;100.00
24031;BME280;12240;51.142;22.486;2023-04-28T05:20:50;99930.91;;;8.05;100.00
24031;BME280;12240;51.142;22.486;2023-04-28T05:23:19;99929.03;;;8.82;100.00
24031;BME280;12240;51.142;22.486;2023-04-28T05:25:47;99915.03;;;8.80;100.00
24031;BME280;12240;51.142;22.486;2023-04-28T05:28:15;99913.16;;;9.12;100.00
24031;BME280;12240;51.142;22.486;2023-04-28T05:30:46;99903.19;;;9.04;100.00
24031;BME280;12240;51.142;22.486;2023-04-28T05:33:15;99908.75;;;9.22;100.00
24031;BME280;12240;51.142;22.486;2023-04-28T05:35:43;99908.66;;;8.51;100.00
24031;BME280;12240;51.142;22.486;2023-04-28T05:38:11;99908.50;;;8.09;100.00
24031;BME280;12240;51.142;22.486;2023-04-28T05:40:41;99910.34;;;7.98;100.00
24031;BME280;12240;51.142;22.486;2023-04-28T05:43:11;99909.25;;;7.89;100.00
24031;BME280;12240;51.142;22.486;2023-04-28T05:45:40;99916.81;;;8.05;100.00
24031;BME280;12240;51.142;22.486;2023-04-28T05:48:08;99914.66;;;7.99;100.00
24031;BME280;12240;51.142;22.486;2023-04-28T05:50:40;99907.31;;;7.91;100.00
24031;BME280;12240;51.142;22.486;2023-04-28T05:53:10;99905.50;;;8.03;100.00
24031;BME280;12240;51.142;22.486;2023-04-28T05:55:38;99908.25;;;8.01;100.00
24031;BME280;12240;51.142;22.486;2023-04-28T05:58:06;99913.81;;;7.98;100.00
24031;BME280;12240;51.142;22.486;2023-04-28T06:00:35;99913.81;;;7.98;100.00
24031;BME280;12240;51.142;22.486;2023-04-28T06:03:04;99923.00;;;7.72;100.00
24031;BME280;12240;51.142;22.486;2023-04-28T06:05:33;99917.31;;;7.99;100.00
24031;BME280;12240;51.142;22.486;2023-04-28T06:08:02;99915.72;;;8.18;100.00
24031;BME280;12240;51.142;22.486;2023-04-28T06:10:31;99906.25;;;8.48;100.00
24031;BME280;12240;51.142;22.486;2023-04-28T06:13:01;99912.69;;;8.34;100.00
24031;BME280;12240;51.142;22.486;2023-04-28T06:15:32;99917.41;;;8.62;100.00
24031;BME280;12240;51.142;22.486;2023-04-28T06:18:00;99909.84;;;8.58;100.00
24031;BME280;12240;51.142;22.486;2023-04-28T06:20:29;99908.97;;;8.57;100.00
24031;BME280;12240;51.142;22.486;2023-04-28T06:22:59;99916.50;;;8.73;100.00
24031;BME280;12240;51.142;22.486;2023-04-28T06:25:27;99907.41;;;8.86;100.00
24031;BME280;12240;51.142;22.486;2023-04-28T06:27:55;99911.94;;;9.16;100.00
24031;BME280;12240;51.142;22.486;2023-04-28T06:30:25;99901.44;;;9.14;100.00
24031;BME280;12240;51.142;22.486;2023-04-28T06:32:54;99907.22;;;9.50;100.00
24031;BME280;12240;51.142;22.486;2023-04-28T06:35:25;99911.66;;;9.70;100.00
24031;BME280;12240;51.142;22.486;2023-04-28T06:37:54;99895.56;;;9.71;100.00
24031;BME280;12240;51.142;22.486;2023-04-28T06:40:22;99899.03;;;9.62;100.00
24031;BME280;12240;51.142;22.486;2023-04-28T06:42:56;99898.00;;;9.93;100.00
24031;BME280;12240;51.142;22.486;2023-04-28T06:45:34;99903.47;;;9.92;100.00
24031;BME280;12240;51.142;22.486;2023-04-28T06:48:04;99898.16;;;10.01;100.00
24031;BME280;12240;51.142;22.486;2023-04-28T06:50:37;99898.16;;;10.01;100.00
24031;BME280;12240;51.142;22.486;2023-04-28T06:53:07;99900.75;;;10.22;100.00
24031;BME280;12240;51.142;22.486;2023-04-28T06:55:35;99904.59;;;10.48;100.00
24031;BME280;12240;51.142;22.486;2023-04-28T06:58:03;99893.66;;;10.41;100.00
24031;BME280;12240;51.142;22.486;2023-04-28T07:00:33;99898.56;;;10.46;100.00
24031;BME280;12240;51.142;22.486;2023-04-28T07:03:02;99898.13;;;10.98;100.00
24031;BME280;12240;51.142;22.486;2023-04-28T07:05:32;99893.44;;;11.29;100.00
24031;BME280;12240;51.142;22.486;2023-04-28T07:08:01;99890.19;;;11.81;100.00
24031;BME280;12240;51.142;22.486;2023-04-28T07:10:29;99889.59;;;11.50;100.00
24031;BME280;12240;51.142;22.486;2023-04-28T07:12:57;99893.94;;;11.51;100.00
24031;BME280;12240;51.142;22.486;2023-04-28T07:15:26;99920.41;;;12.09;100.00
24031;BME280;12240;51.142;22.486;2023-04-28T07:17:55;99905.97;;;12.64;100.00
24031;BME280;12240;51.142;22.486;2023-04-28T07:20:23;99891.94;;;12.62;100.00
24031;BME280;12240;51.142;22.486;2023-04-28T07:22:51;99889.16;;;12.54;100.00
24031;BME280;12240;51.142;22.486;2023-04-28T07:25:19;99883.66;;;12.73;100.00
24031;BME280;12240;51.142;22.486;2023-04-28T07:27:47;99880.75;;;12.49;100.00
24031;BME280;12240;51.142;22.486;2023-04-28T07:30:16;99879.03;;;13.01;100.00
24031;BME280;12240;51.142;22.486;2023-04-28T07:32:55;99854.56;;;12.87;93.62
24031;BME280;12240;51.142;22.486;2023-04-28T07:35:23;99858.22;;;13.30;91.91
24031;BME280;12240;51.142;22.486;2023-04-28T07:37:52;99859.16;;;13.80;91.67
24031;BME280;12240;51.142;22.486;2023-04-28T07:40:21;99856.91;;;13.34;91.72
24031;BME280;12240;51.142;22.486;2023-04-28T07:42:50;99856.34;;;13.48;88.97
24031;BME280;12240;51.142;22.486;2023-04-28T07:45:19;99857.97;;;13.74;89.48
24031;BME280;12240;51.142;22.486;2023-04-28T07:47:47;99854.25;;;14.09;91.28
24031;BME280;12240;51.142;22.486;2023-04-28T07:50:15;99841.72;;;13.76;88.35
24031;BME280;12240;51.142;22.486;2023-04-28T07:52:46;99855.19;;;13.92;88.95
24031;BME280;12240;51.142;22.486;2023-04-28T07:55:15;99848.00;;;13.92;87.19
24031;BME280;12240;51.142;22.486;2023-04-28T07:57:43;99840.66;;;13.94;85.79
24031;BME280;12240;51.142;22.486;2023-04-28T08:00:12;99843.28;;;14.28;84.79
24031;BME280;12240;51.142;22.486;2023-04-28T08:02:40;99840.41;;;14.30;82.37
24031;BME280;12240;51.142;22.486;2023-04-28T08:05:09;99839.19;;;14.24;81.29
24031;BME280;12240;51.142;22.486;2023-04-28T08:07:38;99843.63;;;14.41;78.95
24031;BME280;12240;51.142;22.486;2023-04-28T08:10:08;99839.47;;;14.71;77.93
24031;BME280;12240;51.142;22.486;2023-04-28T08:12:36;99844.63;;;14.48;77.21
24031;BME280;12240;51.142;22.486;2023-04-28T08:15:07;99838.50;;;14.14;76.06
24031;BME280;12240;51.142;22.486;2023-04-28T08:17:35;99839.03;;;14.18;76.25
24031;BME280;12240;51.142;22.486;2023-04-28T08:20:04;99838.63;;;14.54;76.57
24031;BME280;12240;51.142;22.486;2023-04-28T08:22:34;99837.63;;;14.63;75.19
24031;BME280;12240;51.142;22.486;2023-04-28T08:25:02;99827.41;;;14.67;73.96
24031;BME280;12240;51.142;22.486;2023-04-28T08:27:30;99817.47;;;15.24;70.70
24031;BME280;12240;51.142;22.486;2023-04-28T08:29:59;99813.97;;;15.70;66.66
24031;BME280;12240;51.142;22.486;2023-04-28T08:32:27;99811.88;;;15.33;64.95
24031;BME280;12240;51.142;22.486;2023-04-28T08:34:55;99814.34;;;15.59;62.85
24031;BME280;12240;51.142;22.486;2023-04-28T08:37:24;99801.22;;;14.93;58.42
24031;BME280;12240;51.142;22.486;2023-04-28T08:39:53;99808.41;;;15.08;60.90
24031;BME280;12240;51.142;22.486;2023-04-28T08:42:30;99810.63;;;14.81;60.62
24031;BME280;12240;51.142;22.486;2023-04-28T08:44:59;99824.03;;;15.13;61.15
24031;BME280;12240;51.142;22.486;2023-04-28T08:47:37;99831.25;;;14.88;62.72
24031;BME280;12240;51.142;22.486;2023-04-28T08:50:08;99822.34;;;13.74;59.88
24031;BME280;12240;51.142;22.486;2023-04-28T08:52:37;99814.84;;;12.93;56.70
24031;BME280;12240;51.142;22.486;2023-04-28T08:55:08;99828.47;;;13.58;59.79
24031;BME280;12240;51.142;22.486;2023-04-28T08:57:42;99822.44;;;13.56;58.69
24031;BME280;12240;51.142;22.486;2023-04-28T09:00:12;99823.13;;;13.58;59.39
24031;BME280;12240;51.142;22.486;2023-04-28T09:02:40;99815.97;;;13.67;58.20
24031;BME280;12240;51.142;22.486;2023-04-28T09:05:11;99811.84;;;13.88;58.44
24031;BME280;12240;51.142;22.486;2023-04-28T09:07:45;99814.97;;;13.76;59.05
24031;BME280;12240;51.142;22.486;2023-04-28T09:10:23;99815.72;;;14.02;58.84
24031;BME280;12240;51.142;22.486;2023-04-28T09:12:54;99803.63;;;13.74;57.95
24031;BME280;12240;51.142;22.486;2023-04-28T09:15:37;99823.69;;;13.78;59.80
24031;BME280;12240;51.142;22.486;2023-04-28T09:18:08;99821.84;;;13.78;59.22
24031;BME280;12240;51.142;22.486;2023-04-28T09:20:41;99818.81;;;13.40;59.24
24031;BME280;12240;51.142;22.486;2023-04-28T09:23:21;99815.97;;;13.75;58.76
24031;BME280;12240;51.142;22.486;2023-04-28T09:26:05;99817.44;;;14.19;59.46
24031;BME280;12240;51.142;22.486;2023-04-28T09:28:35;99813.81;;;13.78;59.96
24031;BME280;12240;51.142;22.486;2023-04-28T09:31:03;99808.97;;;13.82;59.35
24031;BME280;12240;51.142;22.486;2023-04-28T09:33:31;99811.09;;;14.20;59.32
24031;BME280;12240;51.142;22.486;2023-04-28T09:35:59;99817.78;;;14.16;60.62
24031;BME280;12240;51.142;22.486;2023-04-28T09:38:28;99814.34;;;13.90;60.93
24031;BME280;12240;51.142;22.486;2023-04-28T09:41:01;99808.66;;;13.85;60.44
24031;BME280;12240;51.142;22.486;2023-04-28T09:43:31;99812.16;;;14.59;60.53
24031;BME280;12240;51.142;22.486;2023-04-28T09:46:02;99810.31;;;14.44;61.15
24031;BME280;12240;51.142;22.486;2023-04-28T09:48:35;99792.91;;;14.48;59.56
24031;BME280;12240;51.142;22.486;2023-04-28T09:51:06;99798.91;;;12.40;59.16
24031;BME280;12240;51.142;22.486;2023-04-28T09:53:38;99801.78;;;12.11;61.58
24031;BME280;12240;51.142;22.486;2023-04-28T09:56:06;99809.78;;;12.64;63.31
24031;BME280;12240;51.142;22.486;2023-04-28T09:58:39;99806.22;;;12.55;62.56
24031;BME280;12240;51.142;22.486;2023-04-28T10:01:09;99806.41;;;12.79;64.06
24031;BME280;12240;51.142;22.486;2023-04-28T10:03:39;99814.34;;;13.82;65.57
24031;BME280;12240;51.142;22.486;2023-04-28T10:06:08;99793.94;;;13.89;63.71
24031;BME280;12240;51.142;22.486;2023-04-28T10:08:37;99796.97;;;13.86;63.29
24031;BME280;12240;51.142;22.486;2023-04-28T10:11:07;99793.91;;;14.55;65.83
24031;BME280;12240;51.142;22.486;2023-04-28T10:13:37;99798.38;;;15.18;65.51
24031;BME280;12240;51.142;22.486;2023-04-28T10:16:06;99774.31;;;15.33;61.79
24031;BME280;12240;51.142;22.486;2023-04-28T10:18:36;99781.44;;;15.02;60.42
24031;BME280;12240;51.142;22.486;2023-04-28T10:21:05;99775.25;;;15.01;60.12
24031;BME280;12240;51.142;22.486;2023-04-28T10:26:35;99762.38;;;15.52;59.80
24031;BME280;12240;51.142;22.486;2023-04-28T10:29:14;99767.59;;;15.84;59.55
24031;BME280;12240;51.142;22.486;2023-04-28T10:34:46;99770.78;;;14.46;61.83
24031;BME280;12240;51.142;22.486;2023-04-28T10:37:16;99768.59;;;14.73;59.52
24031;BME280;12240;51.142;22.486;2023-04-28T10:43:05;99762.19;;;15.53;61.67
24031;BME280;12240;51.142;22.486;2023-04-28T10:48:52;99743.56;;;15.60;58.73
24031;BME280;12240;51.142;22.486;2023-04-28T10:51:21;99744.03;;;16.39;60.10
24031;BME280;12240;51.142;22.486;2023-04-28T10:56:24;99722.38;;;15.95;57.34
24031;BME280;12240;51.142;22.486;2023-04-28T10:58:58;99739.38;;;17.36;61.09
24031;BME280;12240;51.142;22.486;2023-04-28T11:01:31;99732.97;;;16.34;61.41
24031;BME280;12240;51.142;22.486;2023-04-28T11:04:06;99737.34;;;15.59;59.15
24031;BME280;12240;51.142;22.486;2023-04-28T11:07:10;99727.47;;;15.52;59.15
24031;BME280;12240;51.142;22.486;2023-04-28T11:12:09;99719.25;;;16.06;59.38
24031;BME280;12240;51.142;22.486;2023-04-28T11:14:38;99720.22;;;16.13;59.19
24031;BME280;12240;51.142;22.486;2023-04-28T11:17:11;99727.47;;;16.73;60.93
24031;BME280;12240;51.142;22.486;2023-04-28T11:19:45;99718.97;;;16.98;60.64
24031;BME280;12240;51.142;22.486;2023-04-28T11:22:18;99716.81;;;16.79;60.60
24031;BME280;12240;51.142;22.486;2023-04-28T11:25:00;99714.72;;;16.52;59.78
24031;BME280;12240;51.142;22.486;2023-04-28T11:27:32;99707.50;;;15.85;58.87
24031;BME280;12240;51.142;22.486;2023-04-28T11:30:00;99704.59;;;16.77;58.39
24031;BME280;12240;51.142;22.486;2023-04-28T11:32:34;99696.00;;;16.59;56.62
24031;BME280;12240;51.142;22.486;2023-04-28T11:35:03;99688.78;;;17.32;55.88
24031;BME280;12240;51.142;22.486;2023-04-28T11:37:37;99701.88;;;17.64;56.22
24031;BME280;12240;51.142;22.486;2023-04-28T11:40:13;99696.31;;;16.93;56.08
24031;BME280;12240;51.142;22.486;2023-04-28T11:42:48;99695.50;;;16.41;56.63
24031;BME280;12240;51.142;22.486;2023-04-28T11:45:16;99704.22;;;16.80;59.19
24031;BME280;12240;51.142;22.486;2023-04-28T11:47:45;99710.22;;;17.25;60.66
24031;BME280;12240;51.142;22.486;2023-04-28T11:50:13;99697.78;;;16.66;58.78
24031;BME280;12240;51.142;22.486;2023-04-28T11:52:49;99698.63;;;16.07;58.26
24031;BME280;12240;51.142;22.486;2023-04-28T11:55:20;99706.34;;;15.79;60.01
24031;BME280;12240;51.142;22.486;2023-04-28T11:57:59;99706.06;;;15.74;57.17
24031;BME280;12240;51.142;22.486;2023-04-28T12:00:36;99706.72;;;16.44;60.73
24031;BME280;12240;51.142;22.486;2023-04-28T12:03:08;99699.09;;;16.99;59.46
24031;BME280;12240;51.142;22.486;2023-04-28T12:05:44;99699.78;;;16.27;58.98
24031;BME280;12240;51.142;22.486;2023-04-28T12:08:13;99686.34;;;15.59;57.51
24031;BME280;12240;51.142;22.486;2023-04-28T12:10:42;99684.97;;;15.94;58.03
24031;BME280;12240;51.142;22.486;2023-04-28T12:13:16;99688.50;;;15.64;57.46
24031;BME280;12240;51.142;22.486;2023-04-28T12:15:44;99684.34;;;15.53;57.32
24031;BME280;12240;51.142;22.486;2023-04-28T12:18:12;99685.66;;;15.27;57.27
24031;BME280;12240;51.142;22.486;2023-04-28T12:20:43;99683.41;;;15.38;57.62
24031;BME280;12240;51.142;22.486;2023-04-28T12:23:11;99685.53;;;15.20;57.74
24031;BME280;12240;51.142;22.486;2023-04-28T12:25:45;99678.88;;;15.00;57.21
24031;BME280;12240;51.142;22.486;2023-04-28T12:28:15;99681.09;;;14.88;57.09
24031;BME280;12240;51.142;22.486;2023-04-28T12:30:43;99671.25;;;15.19;57.77
24031;BME280;12240;51.142;22.486;2023-04-28T12:33:25;99675.03;;;15.41;57.87
24031;BME280;12240;51.142;22.486;2023-04-28T12:35:57;99669.59;;;15.80;56.72
24031;BME280;12240;51.142;22.486;2023-04-28T12:38:26;99656.44;;;15.40;56.22
24031;BME280;12240;51.142;22.486;2023-04-28T12:40:55;99660.81;;;16.08;57.25
24031;BME280;12240;51.142;22.486;2023-04-28T12:43:25;99662.31;;;17.35;57.11
24031;BME280;12240;51.142;22.486;2023-04-28T12:45:56;99656.22;;;17.98;56.96
24031;BME280;12240;51.142;22.486;2023-04-28T12:48:24;99646.25;;;18.41;55.25
24031;BME280;12240;51.142;22.486;2023-04-28T12:50:52;99643.56;;;18.20;55.26
24031;BME280;12240;51.142;22.486;2023-04-28T12:53:20;99640.59;;;18.36;55.42
24031;BME280;12240;51.142;22.486;2023-04-28T12:55:48;99627.75;;;18.38;54.73
24031;BME280;12240;51.142;22.486;2023-04-28T12:58:16;99621.50;;;17.32;53.60
24031;BME280;12240;51.142;22.486;2023-04-28T13:00:45;99622.69;;;16.79;53.95
24031;BME280;12240;51.142;22.486;2023-04-28T13:03:13;99632.84;;;16.40;54.77
24031;BME280;12240;51.142;22.486;2023-04-28T13:05:43;99637.88;;;16.20;56.60
24031;BME280;12240;51.142;22.486;2023-04-28T13:08:11;99639.84;;;16.49;55.97
24031;BME280;12240;51.142;22.486;2023-04-28T13:10:41;99634.63;;;16.48;54.17
24031;BME280;12240;51.142;22.486;2023-04-28T13:13:10;99634.84;;;16.61;55.81
24031;BME280;12240;51.142;22.486;2023-04-28T13:15:38;99628.53;;;16.68;55.22
24031;BME280;12240;51.142;22.486;2023-04-28T13:18:06;99633.72;;;15.19;55.51
24031;BME280;12240;51.142;22.486;2023-04-28T13:20:35;99629.00;;;16.20;56.38
24031;BME280;12240;51.142;22.486;2023-04-28T13:23:03;99635.09;;;16.80;58.26